Auxier, Kentucky
Current Conditions -  °F | °C
As of 5:35 AM on Wednesday 22 Oct 2014 (Local Time) from KSJS Reporting Station
Overcast Overcast  
Wind Chill: 44°   Ceiling: 1500
Heat Index: 44°   Visibility: 10mi
Dew Point: 41°   Wind: 3mph
Humidity: 87%   Direction: 350°N
Pressure: 30.15"   Gusts: NA
Location:  37.74°N, 82.76°W
Report Text: KSJS 220935Z AUTO 35003KT 10SM OVC015 07/05 A3015 RMK AO2 T00680048
Loading
Personal Weather Stations






























Interactive Weather Map
Tropical Storm Tracking
New forecast layout! Learn more

10-Day Weather Forecast

Advertisements
Track Severe Weather on mobile